createdAt,value
2023-04-15T00:01:13.523Z,13.05
2023-04-15T00:03:40.814Z,12.94
2023-04-15T00:06:08.487Z,12.86
2023-04-15T00:08:35.741Z,12.81
2023-04-15T00:11:05.812Z,12.75
2023-04-15T00:13:34.895Z,12.68
2023-04-15T00:16:02.337Z,12.69
2023-04-15T00:18:30.069Z,12.68
2023-04-15T00:20:57.074Z,12.69
2023-04-15T00:23:23.989Z,12.69
2023-04-15T00:25:51.189Z,12.73
2023-04-15T00:28:18.574Z,12.80
2023-04-15T00:30:49.970Z,12.82
2023-04-15T00:33:17.707Z,12.85
2023-04-15T00:35:44.707Z,12.88
2023-04-15T00:38:11.677Z,12.90
2023-04-15T00:40:39.010Z,12.93
2023-04-15T00:43:06.024Z,12.90
2023-04-15T00:45:33.526Z,12.86
2023-04-15T00:48:02.416Z,12.88
2023-04-15T00:50:29.643Z,12.87
2023-04-15T00:52:56.882Z,12.87
2023-04-15T00:55:23.781Z,12.86
2023-04-15T00:57:51.150Z,12.86
2023-04-15T01:00:18.218Z,12.88
2023-04-15T01:02:46.587Z,12.90
2023-04-15T01:05:17.347Z,12.91
2023-04-15T01:07:44.310Z,12.92
2023-04-15T01:10:12.018Z,12.88
2023-04-15T01:12:39.682Z,12.85
2023-04-15T01:15:09.468Z,12.87
2023-04-15T01:17:36.857Z,12.94
2023-04-15T01:20:10.574Z,12.93
2023-04-15T01:22:40.711Z,12.93
2023-04-15T01:25:12.474Z,12.88
2023-04-15T01:27:42.569Z,12.88
2023-04-15T01:30:10.816Z,12.89
2023-04-15T01:32:37.939Z,12.86
2023-04-15T01:35:05.847Z,12.83
2023-04-15T01:37:33.096Z,12.86
2023-04-15T01:40:00.252Z,12.90
2023-04-15T01:42:27.835Z,12.94
2023-04-15T01:44:56.347Z,12.97
2023-04-15T01:47:23.386Z,13.00
2023-04-15T01:49:50.379Z,12.98
2023-04-15T01:52:17.336Z,12.99
2023-04-15T01:54:44.401Z,13.02
2023-04-15T01:57:12.860Z,13.03
2023-04-15T01:59:39.828Z,12.98
2023-04-15T02:02:08.417Z,12.96
2023-04-15T02:04:35.366Z,12.96
2023-04-15T02:07:02.362Z,12.94
2023-04-15T02:09:29.292Z,12.94
2023-04-15T02:11:56.531Z,12.96
2023-04-15T02:14:24.685Z,12.94
2023-04-15T02:16:51.768Z,12.94
2023-04-15T02:19:20.125Z,12.92
2023-04-15T02:21:47.051Z,12.87
2023-04-15T02:24:17.939Z,12.83
2023-04-15T02:26:44.935Z,12.82
2023-04-15T02:29:12.274Z,12.83
2023-04-15T02:31:42.275Z,12.83
2023-04-15T02:34:09.437Z,12.82
2023-04-15T02:36:37.998Z,12.77
2023-04-15T02:39:05.680Z,12.70
2023-04-15T02:41:32.627Z,12.65
2023-04-15T02:43:59.639Z,12.63
2023-04-15T02:46:28.708Z,12.59
2023-04-15T02:48:55.840Z,12.56
2023-04-15T02:51:24.414Z,12.59
2023-04-15T02:53:52.818Z,12.60
2023-04-15T02:56:19.920Z,12.62
2023-04-15T02:58:50.574Z,12.60
2023-04-15T03:01:17.888Z,12.53
2023-04-15T03:03:45.153Z,12.46
2023-04-15T03:06:12.281Z,12.34
2023-04-15T03:08:39.236Z,12.31
2023-04-15T03:11:08.547Z,12.25
2023-04-15T03:13:36.763Z,12.21
2023-04-15T03:16:11.310Z,12.18
2023-04-15T03:18:38.815Z,12.16
2023-04-15T03:21:06.663Z,12.18
2023-04-15T03:23:36.263Z,12.17
2023-04-15T03:26:04.148Z,12.19
2023-04-15T03:28:34.137Z,12.21
2023-04-15T03:31:01.856Z,12.25
2023-04-15T03:33:28.962Z,12.33
2023-04-15T03:35:56.119Z,12.38
2023-04-15T03:38:23.220Z,12.37
2023-04-15T03:40:50.151Z,12.36
2023-04-15T03:43:17.204Z,12.37
2023-04-15T03:45:45.668Z,12.38
2023-04-15T03:48:17.812Z,12.39
2023-04-15T03:50:45.357Z,12.38
2023-04-15T03:53:12.290Z,12.39
2023-04-15T03:55:39.930Z,12.43
2023-04-15T03:58:06.925Z,12.39
2023-04-15T04:00:33.934Z,12.37
2023-04-15T04:03:02.542Z,12.37
2023-04-15T04:05:30.094Z,12.37
2023-04-15T04:07:57.163Z,12.33
2023-04-15T04:10:24.187Z,12.23
2023-04-15T04:12:51.149Z,12.26
2023-04-15T04:15:18.329Z,12.30
2023-04-15T04:17:45.657Z,12.32
2023-04-15T04:20:14.375Z,12.34
2023-04-15T04:22:41.508Z,12.33
2023-04-15T04:25:12.671Z,12.33
2023-04-15T04:27:39.734Z,12.34
2023-04-15T04:30:08.182Z,12.35
2023-04-15T04:32:35.121Z,12.35
2023-04-15T04:35:02.065Z,12.38
2023-04-15T04:37:31.349Z,12.41
2023-04-15T04:39:58.231Z,12.44
2023-04-15T04:42:26.735Z,12.47
2023-04-15T04:44:53.648Z,12.50
2023-04-15T04:47:20.758Z,12.54
2023-04-15T04:49:47.794Z,12.57
2023-04-15T04:52:14.742Z,12.59
2023-04-15T04:54:43.142Z,12.60
2023-04-15T04:57:10.127Z,12.64
2023-04-15T04:59:37.204Z,12.73
2023-04-15T05:02:04.406Z,12.80
2023-04-15T05:04:32.092Z,12.87
2023-04-15T05:06:59.627Z,12.91
2023-04-15T05:09:27.128Z,12.96
2023-04-15T05:11:56.262Z,13.01
2023-04-15T05:14:23.461Z,13.07
2023-04-15T05:16:50.461Z,13.14
2023-04-15T05:19:17.660Z,13.18
2023-04-15T05:21:44.603Z,13.24
2023-04-15T05:24:11.598Z,13.28
2023-04-15T05:26:38.940Z,13.35
2023-04-15T05:29:07.369Z,13.40
2023-04-15T05:31:34.804Z,13.43
2023-04-15T05:34:01.991Z,13.45
2023-04-15T05:36:29.101Z,13.50
2023-04-15T05:38:56.428Z,13.57
2023-04-15T05:41:23.407Z,13.67
2023-04-15T05:43:50.817Z,13.76
2023-04-15T05:46:19.553Z,13.85
2023-04-15T05:48:46.568Z,13.94
2023-04-15T05:51:13.554Z,14.05
2023-04-15T05:53:41.793Z,14.13
2023-04-15T05:56:08.746Z,14.26
2023-04-15T05:58:35.845Z,14.67
2023-04-15T06:01:03.347Z,15.18
2023-04-15T06:03:32.360Z,15.33
2023-04-15T06:05:59.522Z,15.30
2023-04-15T06:08:26.543Z,15.31
2023-04-15T06:10:53.494Z,15.28
2023-04-15T06:13:20.428Z,15.22
2023-04-15T06:15:47.501Z,15.20
2023-04-15T06:18:14.490Z,15.18
2023-04-15T06:20:42.978Z,15.08
2023-04-15T06:23:10.005Z,15.06
2023-04-15T06:25:36.944Z,15.10
2023-04-15T06:28:04.208Z,15.20
2023-04-15T06:30:31.282Z,15.33
2023-04-15T06:32:58.977Z,15.39
2023-04-15T06:35:26.053Z,15.47
2023-04-15T06:37:54.867Z,15.60
2023-04-15T06:40:21.913Z,15.65
2023-04-15T06:42:48.893Z,15.71
2023-04-15T06:45:16.201Z,15.84
2023-04-15T06:47:43.636Z,15.93
2023-04-15T06:50:11.628Z,15.97
2023-04-15T06:52:38.575Z,16.41
2023-04-15T06:55:08.496Z,16.66
2023-04-15T06:57:35.540Z,16.64
2023-04-15T07:00:05.870Z,16.50
2023-04-15T07:02:32.918Z,16.42
2023-04-15T07:05:00.034Z,16.71
2023-04-15T07:07:26.977Z,17.26
2023-04-15T07:09:54.120Z,17.62
2023-04-15T07:12:22.422Z,17.93
2023-04-15T07:14:49.542Z,18.34
2023-04-15T07:17:16.763Z,18.88
2023-04-15T07:19:43.671Z,19.24
2023-04-15T07:22:10.617Z,19.29
2023-04-15T07:24:38.086Z,19.48
2023-04-15T07:27:05.053Z,19.77
2023-04-15T07:29:33.343Z,20.25
2023-04-15T07:32:00.486Z,20.44
2023-04-15T07:34:29.658Z,20.26
2023-04-15T07:36:58.031Z,20.48
2023-04-15T07:39:24.949Z,20.82
2023-04-15T07:41:52.038Z,20.97
2023-04-15T07:44:19.059Z,21.17
2023-04-15T07:46:48.091Z,21.46
2023-04-15T07:49:15.776Z,21.44
2023-04-15T07:51:42.705Z,21.66
2023-04-15T07:54:10.093Z,21.99
2023-04-15T07:56:37.057Z,22.35
2023-04-15T07:59:06.116Z,22.45
2023-04-15T08:01:33.292Z,22.61
2023-04-15T08:04:01.828Z,22.63
2023-04-15T08:06:29.047Z,22.68
2023-04-15T08:08:56.279Z,22.80
2023-04-15T08:11:24.531Z,22.72
2023-04-15T08:13:52.641Z,22.78
2023-04-15T08:16:21.271Z,23.17
2023-04-15T08:18:49.604Z,23.63
2023-04-15T08:21:19.525Z,24.01
2023-04-15T08:23:47.844Z,23.96
2023-04-15T08:26:14.827Z,23.55
2023-04-15T08:28:42.996Z,23.13
2023-04-15T08:31:10.219Z,23.38
2023-04-15T08:33:37.245Z,23.30
2023-04-15T08:36:04.658Z,23.75
2023-04-15T08:38:33.176Z,24.07
2023-04-15T08:41:07.102Z,23.76
2023-04-15T08:43:35.890Z,23.58
2023-04-15T08:46:05.896Z,23.70
2023-04-15T08:48:35.833Z,24.20
2023-04-15T08:51:03.111Z,24.37
2023-04-15T08:53:30.832Z,24.41
2023-04-15T08:56:05.049Z,24.54
2023-04-15T08:58:32.895Z,24.89
2023-04-15T09:01:00.119Z,25.10
2023-04-15T09:03:28.082Z,25.36
2023-04-15T09:05:55.238Z,25.59
2023-04-15T09:08:22.285Z,25.92
2023-04-15T09:10:49.402Z,26.28
2023-04-15T09:13:18.617Z,26.51
2023-04-15T09:15:45.974Z,26.83
2023-04-15T09:18:13.974Z,27.10
2023-04-15T09:20:44.394Z,27.20
2023-04-15T09:23:15.695Z,27.09
2023-04-15T09:25:43.025Z,27.18
2023-04-15T09:28:10.805Z,27.40
2023-04-15T09:30:39.304Z,27.71
2023-04-15T09:33:08.577Z,27.55
2023-04-15T09:35:36.793Z,27.38
2023-04-15T09:38:05.305Z,27.20
2023-04-15T09:40:33.714Z,27.13
2023-04-15T09:43:02.089Z,27.08
2023-04-15T09:45:29.854Z,27.12
2023-04-15T09:47:59.736Z,26.97
2023-04-15T09:50:28.888Z,26.92
2023-04-15T09:52:56.413Z,27.19
2023-04-15T09:55:23.488Z,27.02
2023-04-15T09:57:50.417Z,26.76
2023-04-15T10:00:20.582Z,26.80
2023-04-15T10:02:49.073Z,27.07
2023-04-15T10:05:18.121Z,27.28
2023-04-15T10:07:47.017Z,27.74
2023-04-15T10:10:14.991Z,27.93
2023-04-15T10:12:42.816Z,27.92
2023-04-15T10:15:15.640Z,28.23
2023-04-15T10:17:44.491Z,28.59
2023-04-15T10:20:14.638Z,28.90
2023-04-15T10:22:45.414Z,29.13
2023-04-15T10:25:12.825Z,29.24
2023-04-15T10:27:42.245Z,29.52
2023-04-15T10:30:10.082Z,29.67
2023-04-15T10:32:38.362Z,29.65
2023-04-15T10:35:06.781Z,29.64
2023-04-15T10:37:35.679Z,29.83
2023-04-15T10:40:24.212Z,29.90
2023-04-15T10:42:51.510Z,29.67
2023-04-15T10:45:19.562Z,29.15
2023-04-15T10:47:46.625Z,29.02
2023-04-15T10:50:13.746Z,29.12
2023-04-15T10:52:43.962Z,29.12
2023-04-15T10:55:19.304Z,29.10
2023-04-15T10:57:46.318Z,29.09
2023-04-15T11:00:14.869Z,29.05
2023-04-15T11:02:44.610Z,28.88
2023-04-15T11:05:12.717Z,28.82
2023-04-15T11:07:41.853Z,29.01
2023-04-15T11:10:51.952Z,29.04
2023-04-15T11:13:26.798Z,29.02
2023-04-15T11:15:59.110Z,28.81
2023-04-15T11:18:28.532Z,28.69
2023-04-15T11:20:59.800Z,28.30
2023-04-15T11:23:32.562Z,28.17
2023-04-15T11:26:00.934Z,28.21
2023-04-15T11:28:30.498Z,28.18
2023-04-15T11:30:58.064Z,28.00
2023-04-15T11:33:25.947Z,28.03
2023-04-15T11:35:56.902Z,28.20
2023-04-15T11:38:25.058Z,28.23
2023-04-15T11:40:52.691Z,28.46
2023-04-15T11:43:21.750Z,28.68
2023-04-15T11:45:52.841Z,28.94
2023-04-15T11:48:23.144Z,29.04
2023-04-15T11:50:54.375Z,28.84
2023-04-15T11:53:21.762Z,28.83
2023-04-15T11:55:50.875Z,29.06
2023-04-15T11:58:19.884Z,29.32
2023-04-15T12:00:53.102Z,29.52
2023-04-15T12:03:23.344Z,29.74
2023-04-15T12:06:12.518Z,29.97
2023-04-15T12:09:09.319Z,30.01
2023-04-15T12:11:47.809Z,29.92
2023-04-15T12:14:25.009Z,29.56
2023-04-15T12:16:55.126Z,29.27
2023-04-15T12:19:27.595Z,29.42
2023-04-15T12:22:00.540Z,29.41
2023-04-15T12:24:28.222Z,29.18
2023-04-15T12:26:59.982Z,29.33
2023-04-15T12:29:29.237Z,29.33
2023-04-15T12:31:59.744Z,29.56
2023-04-15T12:34:29.537Z,29.78
2023-04-15T12:36:58.025Z,29.90
2023-04-15T12:39:26.349Z,29.83
2023-04-15T12:41:54.918Z,29.97
2023-04-15T12:44:24.024Z,30.05
2023-04-15T12:46:51.343Z,30.12
2023-04-15T12:49:20.963Z,30.25
2023-04-15T12:51:49.403Z,30.32
2023-04-15T12:54:16.936Z,29.80
2023-04-15T12:56:44.420Z,29.12
2023-04-15T12:59:11.591Z,28.54
2023-04-15T13:01:38.659Z,28.71
2023-04-15T13:04:06.088Z,29.01
2023-04-15T13:06:35.031Z,29.27
2023-04-15T13:09:03.383Z,29.49
2023-04-15T13:11:33.818Z,29.68
2023-04-15T13:14:01.802Z,29.79
2023-04-15T13:16:29.116Z,29.66
2023-04-15T13:18:56.490Z,29.55
2023-04-15T13:21:23.559Z,29.57
2023-04-15T13:23:52.330Z,29.37
2023-04-15T13:26:19.504Z,28.98
2023-04-15T13:28:46.920Z,28.64
2023-04-15T13:31:13.936Z,28.38
2023-04-15T13:33:41.073Z,28.11
2023-04-15T13:36:08.706Z,27.94
2023-04-15T13:38:36.286Z,27.90
2023-04-15T13:41:05.010Z,28.05
2023-04-15T13:43:33.692Z,28.18
2023-04-15T13:46:00.733Z,28.02
2023-04-15T13:48:28.824Z,27.42
2023-04-15T13:50:55.834Z,26.94
2023-04-15T13:53:37.604Z,26.76
2023-04-15T13:56:08.712Z,26.29
2023-04-15T13:58:36.565Z,26.29
2023-04-15T14:01:05.683Z,26.46
2023-04-15T14:03:35.119Z,26.70
2023-04-15T14:06:02.432Z,26.34
2023-04-15T14:08:30.305Z,26.11
2023-04-15T14:10:57.873Z,25.78
2023-04-15T14:13:26.256Z,25.29
2023-04-15T14:15:53.230Z,24.94
2023-04-15T14:18:20.361Z,24.86
2023-04-15T14:20:47.459Z,24.94
2023-04-15T14:23:14.379Z,25.08
2023-04-15T14:25:41.497Z,25.14
2023-04-15T14:28:08.397Z,25.15
2023-04-15T14:30:37.039Z,25.02
2023-04-15T14:33:04.258Z,24.98
2023-04-15T14:35:31.376Z,24.81
2023-04-15T14:37:58.396Z,24.43
2023-04-15T14:40:25.771Z,24.24
2023-04-15T14:42:55.109Z,24.03
2023-04-15T14:45:22.059Z,23.91
2023-04-15T14:47:50.752Z,23.75
2023-04-15T14:50:17.941Z,23.61
2023-04-15T14:52:45.203Z,23.56
2023-04-15T14:55:12.906Z,23.45
2023-04-15T14:57:41.460Z,23.28
2023-04-15T15:00:10.556Z,23.17
2023-04-15T15:02:40.303Z,23.05
2023-04-15T15:05:10.512Z,22.99
2023-04-15T15:07:38.666Z,22.81
2023-04-15T15:10:07.122Z,22.58
2023-04-15T15:12:34.497Z,22.31
2023-04-15T15:15:04.917Z,22.20
2023-04-15T15:17:36.605Z,22.17
2023-04-15T15:20:04.168Z,22.11
2023-04-15T15:22:32.486Z,22.15
2023-04-15T15:24:59.794Z,22.08
2023-04-15T15:27:26.737Z,22.06
2023-04-15T15:29:53.818Z,21.98
2023-04-15T15:32:22.816Z,21.94
2023-04-15T15:34:49.774Z,21.84
2023-04-15T15:37:18.803Z,21.75
2023-04-15T15:39:47.304Z,21.67
2023-04-15T15:42:14.190Z,21.58
2023-04-15T15:44:41.248Z,21.55
2023-04-15T15:47:08.776Z,21.39
2023-04-15T15:49:35.716Z,21.33
2023-04-15T15:52:02.666Z,21.28
2023-04-15T15:54:29.834Z,21.22
2023-04-15T15:56:58.203Z,21.17
2023-04-15T15:59:25.618Z,21.14
2023-04-15T16:01:52.963Z,21.02
2023-04-15T16:04:20.491Z,20.98
2023-04-15T16:06:47.922Z,20.95
2023-04-15T16:09:14.921Z,20.92
2023-04-15T16:11:41.865Z,20.91
2023-04-15T16:14:10.760Z,20.95
2023-04-15T16:16:38.848Z,20.97
2023-04-15T16:19:06.051Z,21.01
2023-04-15T16:21:34.778Z,21.04
2023-04-15T16:24:04.412Z,21.05
2023-04-15T16:26:31.434Z,21.08
2023-04-15T16:28:58.449Z,21.09
2023-04-15T16:31:26.763Z,21.10
2023-04-15T16:33:53.825Z,21.09
2023-04-15T16:36:20.809Z,21.08
2023-04-15T16:38:48.725Z,21.03
2023-04-15T16:41:15.966Z,21.00
2023-04-15T16:43:43.094Z,20.96
2023-04-15T16:46:10.297Z,20.89
2023-04-15T16:48:38.666Z,20.85
2023-04-15T16:51:06.003Z,20.82
2023-04-15T16:53:32.955Z,20.77
2023-04-15T16:55:59.844Z,20.73
2023-04-15T16:58:27.782Z,20.63
2023-04-15T17:00:54.712Z,20.54
2023-04-15T17:03:22.270Z,20.43
2023-04-15T17:05:50.788Z,20.34
2023-04-15T17:08:17.990Z,20.24
2023-04-15T17:10:45.136Z,20.14
2023-04-15T17:13:12.220Z,20.04
2023-04-15T17:15:40.656Z,19.92
2023-04-15T17:18:09.305Z,19.81
2023-04-15T17:20:36.513Z,19.72
2023-04-15T17:23:05.488Z,19.59
2023-04-15T17:25:32.427Z,19.52
2023-04-15T17:27:59.559Z,19.46
2023-04-15T17:30:27.056Z,19.36
2023-04-15T17:32:54.157Z,19.27
2023-04-15T17:35:21.491Z,19.09
2023-04-15T17:37:48.571Z,18.94
2023-04-15T17:40:17.250Z,18.74
2023-04-15T17:42:44.488Z,18.62
2023-04-15T17:45:11.809Z,18.61
2023-04-15T17:47:38.811Z,18.59
2023-04-15T17:50:07.245Z,18.58
2023-04-15T17:52:34.348Z,18.52
2023-04-15T17:55:01.415Z,18.45
2023-04-15T17:57:30.409Z,18.46
2023-04-15T17:59:57.344Z,18.48
2023-04-15T18:02:24.497Z,18.49
2023-04-15T18:04:51.704Z,18.50
2023-04-15T18:07:18.883Z,18.48
2023-04-15T18:09:46.208Z,18.46
2023-04-15T18:12:13.212Z,18.37
2023-04-15T18:14:41.544Z,18.27
2023-04-15T18:17:09.008Z,18.21
2023-04-15T18:19:36.003Z,18.18
2023-04-15T18:22:04.052Z,18.11
2023-04-15T18:24:31.319Z,18.06
2023-04-15T18:26:59.170Z,18.04
2023-04-15T18:29:26.324Z,18.05
2023-04-15T18:31:55.065Z,18.03
2023-04-15T18:34:22.305Z,18.01
2023-04-15T18:36:49.253Z,18.02
2023-04-15T18:39:17.004Z,18.02
2023-04-15T18:41:44.029Z,18.02
2023-04-15T18:44:10.988Z,17.99
2023-04-15T18:46:37.961Z,17.93
2023-04-15T18:49:06.605Z,17.78
2023-04-15T18:51:34.054Z,17.67
2023-04-15T18:54:01.326Z,17.62
2023-04-15T18:56:28.289Z,17.54
2023-04-15T18:59:18.922Z,17.48
2023-04-15T19:01:42.302Z,17.34
2023-04-15T19:04:11.315Z,17.28
2023-04-15T19:06:38.388Z,17.24
2023-04-15T19:09:05.533Z,17.19
2023-04-15T19:11:32.693Z,17.15
2023-04-15T19:14:00.742Z,17.15
2023-04-15T19:16:27.776Z,17.07
2023-04-15T19:18:54.728Z,16.89
2023-04-15T19:21:23.044Z,16.89
2023-04-15T19:23:50.311Z,16.86
2023-04-15T19:26:17.311Z,16.78
2023-04-15T19:28:44.253Z,16.75
2023-04-15T19:31:11.346Z,16.74
2023-04-15T19:33:38.870Z,16.67
2023-04-15T19:36:07.552Z,16.66
2023-04-15T19:38:36.931Z,16.71
2023-04-15T19:41:03.987Z,16.71
2023-04-15T19:43:32.368Z,16.69
2023-04-15T19:45:59.897Z,16.70
2023-04-15T19:48:27.047Z,16.70
2023-04-15T19:50:54.065Z,16.67
2023-04-15T19:53:21.085Z,16.62
2023-04-15T19:55:49.473Z,16.59
2023-04-15T19:58:16.634Z,16.52
2023-04-15T20:00:43.580Z,16.48
2023-04-15T20:03:11.113Z,16.48
2023-04-15T20:05:38.154Z,16.49
2023-04-15T20:08:05.383Z,16.48
2023-04-15T20:10:32.483Z,16.44
2023-04-15T20:13:00.909Z,16.42
2023-04-15T20:15:27.927Z,16.38
2023-04-15T20:17:55.039Z,16.33
2023-04-15T20:20:22.384Z,16.26
2023-04-15T20:22:49.362Z,16.18
2023-04-15T20:25:16.336Z,16.08
2023-04-15T20:27:43.298Z,16.03
2023-04-15T20:30:11.995Z,16.02
2023-04-15T20:32:39.048Z,16.02
2023-04-15T20:35:07.026Z,15.98
2023-04-15T20:37:34.546Z,15.96
2023-04-15T20:40:02.234Z,15.92
2023-04-15T20:42:33.486Z,15.87
2023-04-15T20:45:01.221Z,15.85
2023-04-15T20:47:29.671Z,15.81
2023-04-15T20:49:56.844Z,15.72
2023-04-15T20:52:23.855Z,15.67
2023-04-15T20:54:51.364Z,15.62
2023-04-15T20:57:18.501Z,15.60
2023-04-15T20:59:45.546Z,15.57
2023-04-15T21:02:12.574Z,15.55
2023-04-15T21:04:41.058Z,15.50
2023-04-15T21:07:08.081Z,15.47
2023-04-15T21:09:35.028Z,15.44
2023-04-15T21:12:02.403Z,15.43
2023-04-15T21:14:29.808Z,15.44
2023-04-15T21:16:57.205Z,15.40
2023-04-15T21:19:24.123Z,15.37
2023-04-15T21:21:52.545Z,15.33
2023-04-15T21:24:19.580Z,15.29
2023-04-15T21:26:46.595Z,15.25
2023-04-15T21:29:13.697Z,15.24
2023-04-15T21:31:40.917Z,14.99
2023-04-15T21:34:07.996Z,14.89
2023-04-15T21:36:35.206Z,14.87
2023-04-15T21:39:04.150Z,14.84
2023-04-15T21:41:31.481Z,14.83
2023-04-15T21:43:58.603Z,14.73
2023-04-15T21:46:32.811Z,14.71
2023-04-15T21:49:02.086Z,14.69
2023-04-15T21:51:32.684Z,14.70
2023-04-15T21:53:59.701Z,14.72
2023-04-15T21:56:28.056Z,14.74
2023-04-15T21:58:56.984Z,14.76
2023-04-15T22:01:24.403Z,14.74
2023-04-15T22:03:52.082Z,14.59
2023-04-15T22:06:19.168Z,14.55
2023-04-15T22:08:56.272Z,14.57
2023-04-15T22:11:28.777Z,14.59
2023-04-15T22:13:57.798Z,14.58
2023-04-15T22:16:25.482Z,14.57
2023-04-15T22:18:52.601Z,14.57
2023-04-15T22:21:19.825Z,14.54
2023-04-15T22:23:47.617Z,14.53
2023-04-15T22:26:14.816Z,14.49
2023-04-15T22:28:41.928Z,14.49
2023-04-15T22:31:10.517Z,14.49
2023-04-15T22:33:38.762Z,14.51
2023-04-15T22:36:06.300Z,14.49
2023-04-15T22:38:33.289Z,14.46
2023-04-15T22:41:00.258Z,14.45
2023-04-15T22:43:27.724Z,14.44
2023-04-15T22:45:55.142Z,14.40
2023-04-15T22:48:23.846Z,14.39
2023-04-15T22:50:50.900Z,14.36
2023-04-15T22:53:18.112Z,14.32
2023-04-15T22:55:45.838Z,14.28
2023-04-15T22:58:12.847Z,14.27
2023-04-15T23:00:39.966Z,14.27
2023-04-15T23:03:07.293Z,14.23
2023-04-15T23:05:36.066Z,14.18
2023-04-15T23:08:03.490Z,14.05
2023-04-15T23:10:30.689Z,13.91
2023-04-15T23:12:57.817Z,13.81
2023-04-15T23:15:25.071Z,13.68
2023-04-15T23:17:52.017Z,13.54
2023-04-15T23:20:18.969Z,13.51
2023-04-15T23:22:47.352Z,13.46
2023-04-15T23:25:14.346Z,13.44
2023-04-15T23:27:41.249Z,13.48
2023-04-15T23:30:08.889Z,13.51
2023-04-15T23:32:36.043Z,13.44
2023-04-15T23:35:03.255Z,13.45
2023-04-15T23:37:31.038Z,13.46
2023-04-15T23:39:59.367Z,13.49
2023-04-15T23:42:27.113Z,13.51
2023-04-15T23:44:54.083Z,13.52
2023-04-15T23:47:21.490Z,13.54
2023-04-15T23:49:48.421Z,13.58
2023-04-15T23:52:15.398Z,13.59
2023-04-15T23:54:42.360Z,13.58
2023-04-15T23:57:10.770Z,13.61
2023-04-15T23:59:37.706Z,13.63
